sensor_id;sensor_type;location;lat;lon;timestamp;temperature;humidity
27368;DHT22;14839;48.106;11.618;2023-12-14T05:01:04;5.40;94.60
27368;DHT22;14839;48.106;11.618;2023-12-14T05:03:29;5.40;94.60
27368;DHT22;14839;48.106;11.618;2023-12-14T05:05:55;5.40;94.60
27368;DHT22;14839;48.106;11.618;2023-12-14T05:08:22;5.40;94.60
27368;DHT22;14839;48.106;11.618;2023-12-14T05:10:47;5.30;94.60
27368;DHT22;14839;48.106;11.618;2023-12-14T05:13:13;5.40;94.60
27368;DHT22;14839;48.106;11.618;2023-12-14T05:15:38;5.30;94.60
27368;DHT22;14839;48.106;11.618;2023-12-14T05:18:04;5.30;94.60
27368;DHT22;14839;48.106;11.618;2023-12-14T05:20:30;5.20;94.60
27368;DHT22;14839;48.106;11.618;2023-12-14T05:22:55;5.20;94.60
27368;DHT22;14839;48.106;11.618;2023-12-14T05:25:21;5.20;94.60
27368;DHT22;14839;48.106;11.618;2023-12-14T05:27:46;5.20;94.60
27368;DHT22;14839;48.106;11.618;2023-12-14T05:30:12;5.20;94.60
27368;DHT22;14839;48.106;11.618;2023-12-14T05:32:38;5.20;94.60
27368;DHT22;14839;48.106;11.618;2023-12-14T05:35:04;5.20;94.60
27368;DHT22;14839;48.106;11.618;2023-12-14T05:37:30;5.20;94.60
27368;DHT22;14839;48.106;11.618;2023-12-14T05:39:55;5.20;94.60
27368;DHT22;14839;48.106;11.618;2023-12-14T05:45:46;5.20;94.60
27368;DHT22;14839;48.106;11.618;2023-12-14T05:48:12;5.30;94.60
27368;DHT22;14839;48.106;11.618;2023-12-14T05:50:37;5.20;94.60
27368;DHT22;14839;48.106;11.618;2023-12-14T05:53:03;5.20;94.60
27368;DHT22;14839;48.106;11.618;2023-12-14T05:55:29;5.20;94.60
27368;DHT22;14839;48.106;11.618;2023-12-14T05:57:54;5.30;94.60
27368;DHT22;14839;48.106;11.618;2023-12-14T06:00:21;5.20;94.60
27368;DHT22;14839;48.106;11.618;2023-12-14T06:02:47;5.30;94.60
27368;DHT22;14839;48.106;11.618;2023-12-14T06:05:13;5.30;94.60
27368;DHT22;14839;48.106;11.618;2023-12-14T06:07:38;5.30;94.60
27368;DHT22;14839;48.106;11.618;2023-12-14T06:10:05;5.30;94.60
27368;DHT22;14839;48.106;11.618;2023-12-14T06:16:06;5.30;94.60
27368;DHT22;14839;48.106;11.618;2023-12-14T06:18:39;5.40;94.60
27368;DHT22;14839;48.106;11.618;2023-12-14T06:21:06;5.40;94.60
27368;DHT22;14839;48.106;11.618;2023-12-14T06:23:32;5.40;94.60
27368;DHT22;14839;48.106;11.618;2023-12-14T06:25:58;5.40;94.60
27368;DHT22;14839;48.106;11.618;2023-12-14T06:28:24;5.40;94.60
27368;DHT22;14839;48.106;11.618;2023-12-14T06:30:49;5.40;94.60
27368;DHT22;14839;48.106;11.618;2023-12-14T06:33:15;5.30;94.60
27368;DHT22;14839;48.106;11.618;2023-12-14T06:35:41;5.30;94.60
27368;DHT22;14839;48.106;11.618;2023-12-14T06:38:08;5.30;94.60
27368;DHT22;14839;48.106;11.618;2023-12-14T06:40:35;5.40;94.60
27368;DHT22;14839;48.106;11.618;2023-12-14T06:43:03;5.40;94.60
27368;DHT22;14839;48.106;11.618;2023-12-14T06:45:28;5.40;94.60
27368;DHT22;14839;48.106;11.618;2023-12-14T06:47:54;5.30;94.60
27368;DHT22;14839;48.106;11.618;2023-12-14T06:50:19;5.30;94.60
27368;DHT22;14839;48.106;11.618;2023-12-14T06:52:45;5.30;94.60
27368;DHT22;14839;48.106;11.618;2023-12-14T06:55:11;5.40;94.60
27368;DHT22;14839;48.106;11.618;2023-12-14T06:57:37;5.40;94.60
27368;DHT22;14839;48.106;11.618;2023-12-14T07:00:03;5.40;94.60
27368;DHT22;14839;48.106;11.618;2023-12-14T07:02:28;5.40;94.60
27368;DHT22;14839;48.106;11.618;2023-12-14T07:04:54;5.40;94.60
27368;DHT22;14839;48.106;11.618;2023-12-14T07:07:19;5.40;94.60
27368;DHT22;14839;48.106;11.618;2023-12-14T07:09:45;5.40;94.60
27368;DHT22;14839;48.106;11.618;2023-12-14T07:12:11;5.50;94.60
27368;DHT22;14839;48.106;11.618;2023-12-14T07:14:37;5.50;94.60
27368;DHT22;14839;48.106;11.618;2023-12-14T07:17:02;5.50;94.60
27368;DHT22;14839;48.106;11.618;2023-12-14T07:19:28;5.40;94.60
27368;DHT22;14839;48.106;11.618;2023-12-14T07:21:54;5.50;94.60
27368;DHT22;14839;48.106;11.618;2023-12-14T07:24:19;5.50;94.60
27368;DHT22;14839;48.106;11.618;2023-12-14T07:26:45;5.50;94.60
27368;DHT22;14839;48.106;11.618;2023-12-14T07:29:10;5.50;94.60
27368;DHT22;14839;48.106;11.618;2023-12-14T07:31:36;5.50;94.60
27368;DHT22;14839;48.106;11.618;2023-12-14T07:34:02;5.50;94.60
27368;DHT22;14839;48.106;11.618;2023-12-14T07:36:27;5.60;94.60
27368;DHT22;14839;48.106;11.618;2023-12-14T07:38:53;5.60;94.60
27368;DHT22;14839;48.106;11.618;2023-12-14T07:41:19;5.70;94.60
27368;DHT22;14839;48.106;11.618;2023-12-14T07:43:45;5.70;94.60
27368;DHT22;14839;48.106;11.618;2023-12-14T07:46:10;5.70;94.60
27368;DHT22;14839;48.106;11.618;2023-12-14T07:48:36;5.80;94.60
27368;DHT22;14839;48.106;11.618;2023-12-14T07:51:02;5.80;94.60
27368;DHT22;14839;48.106;11.618;2023-12-14T07:53:27;5.80;94.60
27368;DHT22;14839;48.106;11.618;2023-12-14T07:55:53;5.80;94.60
27368;DHT22;14839;48.106;11.618;2023-12-14T07:58:19;5.80;94.60
27368;DHT22;14839;48.106;11.618;2023-12-14T08:00:44;5.80;94.60
27368;DHT22;14839;48.106;11.618;2023-12-14T08:03:10;5.90;94.60
27368;DHT22;14839;48.106;11.618;2023-12-14T08:05:35;5.90;94.60
27368;DHT22;14839;48.106;11.618;2023-12-14T08:08:01;6.00;94.60
27368;DHT22;14839;48.106;11.618;2023-12-14T08:10:26;6.10;94.60
27368;DHT22;14839;48.106;11.618;2023-12-14T08:12:52;6.20;94.60
27368;DHT22;14839;48.106;11.618;2023-12-14T08:15:18;6.20;94.60
27368;DHT22;14839;48.106;11.618;2023-12-14T08:17:44;6.20;94.60
27368;DHT22;14839;48.106;11.618;2023-12-14T08:20:10;6.20;94.60
27368;DHT22;14839;48.106;11.618;2023-12-14T08:22:37;6.20;94.60
27368;DHT22;14839;48.106;11.618;2023-12-14T08:25:02;6.20;94.60
27368;DHT22;14839;48.106;11.618;2023-12-14T08:27:29;6.20;94.60
27368;DHT22;14839;48.106;11.618;2023-12-14T08:29:54;6.20;94.60
27368;DHT22;14839;48.106;11.618;2023-12-14T08:32:20;6.10;94.60
27368;DHT22;14839;48.106;11.618;2023-12-14T08:34:48;6.20;94.60
27368;DHT22;14839;48.106;11.618;2023-12-14T08:37:14;6.20;94.60
27368;DHT22;14839;48.106;11.618;2023-12-14T08:39:39;6.10;94.60
27368;DHT22;14839;48.106;11.618;2023-12-14T08:42:05;6.10;94.60
27368;DHT22;14839;48.106;11.618;2023-12-14T08:44:31;6.10;94.60
27368;DHT22;14839;48.106;11.618;2023-12-14T08:46:56;6.10;94.60
27368;DHT22;14839;48.106;11.618;2023-12-14T08:49:22;6.10;94.60
27368;DHT22;14839;48.106;11.618;2023-12-14T08:51:57;6.10;94.60
27368;DHT22;14839;48.106;11.618;2023-12-14T08:54:25;6.10;94.60
27368;DHT22;14839;48.106;11.618;2023-12-14T08:56:51;6.20;94.60
27368;DHT22;14839;48.106;11.618;2023-12-14T08:59:17;6.20;94.60
27368;DHT22;14839;48.106;11.618;2023-12-14T09:01:45;6.30;94.60
27368;DHT22;14839;48.106;11.618;2023-12-14T09:04:11;6.40;94.60
27368;DHT22;14839;48.106;11.618;2023-12-14T09:06:37;6.40;94.60
27368;DHT22;14839;48.106;11.618;2023-12-14T09:09:03;6.40;94.60
27368;DHT22;14839;48.106;11.618;2023-12-14T09:11:29;6.40;94.60
27368;DHT22;14839;48.106;11.618;2023-12-14T09:13:55;6.30;94.60
27368;DHT22;14839;48.106;11.618;2023-12-14T09:16:21;6.40;94.60
27368;DHT22;14839;48.106;11.618;2023-12-14T09:18:46;6.40;94.60
27368;DHT22;14839;48.106;11.618;2023-12-14T09:21:12;6.40;94.60
27368;DHT22;14839;48.106;11.618;2023-12-14T09:23:40;6.30;94.60
27368;DHT22;14839;48.106;11.618;2023-12-14T09:26:06;6.50;94.60
27368;DHT22;14839;48.106;11.618;2023-12-14T09:28:32;6.40;94.60
27368;DHT22;14839;48.106;11.618;2023-12-14T09:31:00;6.50;94.60
27368;DHT22;14839;48.106;11.618;2023-12-14T09:33:26;6.50;94.60
27368;DHT22;14839;48.106;11.618;2023-12-14T09:35:52;6.60;94.60
27368;DHT22;14839;48.106;11.618;2023-12-14T09:38:17;6.50;94.60
27368;DHT22;14839;48.106;11.618;2023-12-14T09:40:44;6.50;94.60
27368;DHT22;14839;48.106;11.618;2023-12-14T09:43:10;6.50;94.60
27368;DHT22;14839;48.106;11.618;2023-12-14T09:45:38;6.50;94.60
27368;DHT22;14839;48.106;11.618;2023-12-14T09:48:07;6.50;94.60
27368;DHT22;14839;48.106;11.618;2023-12-14T09:50:34;6.50;94.60
27368;DHT22;14839;48.106;11.618;2023-12-14T09:53:00;6.50;94.60
27368;DHT22;14839;48.106;11.618;2023-12-14T09:55:26;6.50;94.60
27368;DHT22;14839;48.106;11.618;2023-12-14T09:57:51;6.50;94.60
27368;DHT22;14839;48.106;11.618;2023-12-14T10:00:34;6.50;94.60
27368;DHT22;14839;48.106;11.618;2023-12-14T10:03:20;6.50;94.60
27368;DHT22;14839;48.106;11.618;2023-12-14T10:05:46;6.50;94.60
27368;DHT22;14839;48.106;11.618;2023-12-14T10:08:12;6.60;94.60
27368;DHT22;14839;48.106;11.618;2023-12-14T10:10:38;6.70;94.60
27368;DHT22;14839;48.106;11.618;2023-12-14T10:13:04;6.60;94.60
27368;DHT22;14839;48.106;11.618;2023-12-14T10:15:29;6.70;94.60
27368;DHT22;14839;48.106;11.618;2023-12-14T10:18:05;6.80;94.60
27368;DHT22;14839;48.106;11.618;2023-12-14T10:20:32;6.80;94.60
27368;DHT22;14839;48.106;11.618;2023-12-14T10:23:00;6.70;94.60
27368;DHT22;14839;48.106;11.618;2023-12-14T10:25:26;6.70;94.60
27368;DHT22;14839;48.106;11.618;2023-12-14T10:27:52;6.60;94.60
27368;DHT22;14839;48.106;11.618;2023-12-14T10:30:18;6.70;94.60
27368;DHT22;14839;48.106;11.618;2023-12-14T10:32:47;6.70;94.60
27368;DHT22;14839;48.106;11.618;2023-12-14T10:35:13;6.70;94.60
27368;DHT22;14839;48.106;11.618;2023-12-14T10:37:42;6.80;94.60
27368;DHT22;14839;48.106;11.618;2023-12-14T10:40:09;6.90;94.60
27368;DHT22;14839;48.106;11.618;2023-12-14T10:42:39;7.00;94.60
27368;DHT22;14839;48.106;11.618;2023-12-14T10:45:08;7.20;94.60
27368;DHT22;14839;48.106;11.618;2023-12-14T10:47:36;7.30;94.60
27368;DHT22;14839;48.106;11.618;2023-12-14T10:50:03;7.20;94.60
27368;DHT22;14839;48.106;11.618;2023-12-14T10:52:31;7.10;94.60
27368;DHT22;14839;48.106;11.618;2023-12-14T10:55:07;7.10;94.60
27368;DHT22;14839;48.106;11.618;2023-12-14T10:57:35;7.00;94.60
27368;DHT22;14839;48.106;11.618;2023-12-14T11:00:03;6.90;94.60
27368;DHT22;14839;48.106;11.618;2023-12-14T11:02:30;6.90;94.60
27368;DHT22;14839;48.106;11.618;2023-12-14T11:05:02;6.90;94.60
27368;DHT22;14839;48.106;11.618;2023-12-14T11:07:49;6.90;94.60
27368;DHT22;14839;48.106;11.618;2023-12-14T11:10:15;6.70;94.60
27368;DHT22;14839;48.106;11.618;2023-12-14T11:13:02;6.70;94.60
27368;DHT22;14839;48.106;11.618;2023-12-14T11:15:29;6.70;94.60
27368;DHT22;14839;48.106;11.618;2023-12-14T11:25:57;7.00;94.60
27368;DHT22;14839;48.106;11.618;2023-12-14T11:28:22;6.90;94.60
27368;DHT22;14839;48.106;11.618;2023-12-14T11:30:48;6.90;94.60
27368;DHT22;14839;48.106;11.618;2023-12-14T11:33:16;7.00;94.60
27368;DHT22;14839;48.106;11.618;2023-12-14T11:35:42;7.10;94.60
27368;DHT22;14839;48.106;11.618;2023-12-14T11:38:07;7.20;94.60
27368;DHT22;14839;48.106;11.618;2023-12-14T11:40:39;7.20;94.60
27368;DHT22;14839;48.106;11.618;2023-12-14T11:43:05;7.40;94.60
27368;DHT22;14839;48.106;11.618;2023-12-14T11:45:43;7.50;94.60
27368;DHT22;14839;48.106;11.618;2023-12-14T11:48:11;7.70;94.60
27368;DHT22;14839;48.106;11.618;2023-12-14T11:50:38;7.80;94.60
27368;DHT22;14839;48.106;11.618;2023-12-14T11:53:04;7.80;94.60
27368;DHT22;14839;48.106;11.618;2023-12-14T11:55:38;7.90;94.60
27368;DHT22;14839;48.106;11.618;2023-12-14T11:58:05;7.90;94.60
27368;DHT22;14839;48.106;11.618;2023-12-14T12:00:32;7.80;94.60
27368;DHT22;14839;48.106;11.618;2023-12-14T12:05:44;7.60;94.60
27368;DHT22;14839;48.106;11.618;2023-12-14T12:08:11;7.70;94.60
27368;DHT22;14839;48.106;11.618;2023-12-14T12:10:41;7.70;94.60
27368;DHT22;14839;48.106;11.618;2023-12-14T12:13:11;7.70;94.60
27368;DHT22;14839;48.106;11.618;2023-12-14T12:15:37;7.90;94.60
27368;DHT22;14839;48.106;11.618;2023-12-14T12:18:07;8.10;94.60
27368;DHT22;14839;48.106;11.618;2023-12-14T12:20:33;8.40;94.60
27368;DHT22;14839;48.106;11.618;2023-12-14T12:23:00;8.60;94.60
27368;DHT22;14839;48.106;11.618;2023-12-14T12:25:26;8.70;94.60
27368;DHT22;14839;48.106;11.618;2023-12-14T12:27:53;8.60;94.60
27368;DHT22;14839;48.106;11.618;2023-12-14T12:30:19;8.50;94.60
27368;DHT22;14839;48.106;11.618;2023-12-14T12:32:45;8.40;94.60
27368;DHT22;14839;48.106;11.618;2023-12-14T12:35:10;8.30;94.60
27368;DHT22;14839;48.106;11.618;2023-12-14T12:37:36;8.30;94.60
27368;DHT22;14839;48.106;11.618;2023-12-14T12:40:02;8.30;94.60
27368;DHT22;14839;48.106;11.618;2023-12-14T12:42:27;8.30;94.60
27368;DHT22;14839;48.106;11.618;2023-12-14T12:44:54;8.30;94.60
27368;DHT22;14839;48.106;11.618;2023-12-14T12:47:20;8.20;94.60
27368;DHT22;14839;48.106;11.618;2023-12-14T12:49:45;8.20;94.60
27368;DHT22;14839;48.106;11.618;2023-12-14T12:52:11;8.10;94.60
27368;DHT22;14839;48.106;11.618;2023-12-14T12:54:37;8.10;94.60
27368;DHT22;14839;48.106;11.618;2023-12-14T12:57:03;8.10;94.60
27368;DHT22;14839;48.106;11.618;2023-12-14T12:59:28;8.10;94.60
27368;DHT22;14839;48.106;11.618;2023-12-14T13:01:54;8.20;94.60
27368;DHT22;14839;48.106;11.618;2023-12-14T13:04:23;8.20;94.60
27368;DHT22;14839;48.106;11.618;2023-12-14T13:06:50;8.20;94.60
27368;DHT22;14839;48.106;11.618;2023-12-14T13:09:16;8.20;94.60
27368;DHT22;14839;48.106;11.618;2023-12-14T13:11:45;8.30;94.60
27368;DHT22;14839;48.106;11.618;2023-12-14T13:14:11;8.30;94.60
27368;DHT22;14839;48.106;11.618;2023-12-14T13:16:38;8.40;94.60
27368;DHT22;14839;48.106;11.618;2023-12-14T13:19:04;8.30;94.60
27368;DHT22;14839;48.106;11.618;2023-12-14T13:21:34;8.40;94.60
27368;DHT22;14839;48.106;11.618;2023-12-14T13:24:00;8.50;94.60
27368;DHT22;14839;48.106;11.618;2023-12-14T13:26:26;8.50;94.60
27368;DHT22;14839;48.106;11.618;2023-12-14T13:28:52;8.40;94.60
27368;DHT22;14839;48.106;11.618;2023-12-14T13:31:18;8.30;94.60
27368;DHT22;14839;48.106;11.618;2023-12-14T13:33:46;8.30;94.60
27368;DHT22;14839;48.106;11.618;2023-12-14T13:36:12;8.10;94.60
27368;DHT22;14839;48.106;11.618;2023-12-14T13:38:38;8.00;94.60
27368;DHT22;14839;48.106;11.618;2023-12-14T13:41:04;7.90;94.60
27368;DHT22;14839;48.106;11.618;2023-12-14T13:43:31;7.90;94.60
27368;DHT22;14839;48.106;11.618;2023-12-14T13:45:56;7.80;94.60
27368;DHT22;14839;48.106;11.618;2023-12-14T13:48:26;7.80;94.60
27368;DHT22;14839;48.106;11.618;2023-12-14T13:50:54;7.80;94.60
27368;DHT22;14839;48.106;11.618;2023-12-14T13:53:20;7.70;94.60
27368;DHT22;14839;48.106;11.618;2023-12-14T13:55:46;7.70;94.60
27368;DHT22;14839;48.106;11.618;2023-12-14T13:58:12;7.70;94.60
27368;DHT22;14839;48.106;11.618;2023-12-14T14:00:38;7.70;94.60
27368;DHT22;14839;48.106;11.618;2023-12-14T14:03:04;7.80;94.60
27368;DHT22;14839;48.106;11.618;2023-12-14T14:05:31;7.80;94.60
27368;DHT22;14839;48.106;11.618;2023-12-14T14:07:57;7.70;94.60
27368;DHT22;14839;48.106;11.618;2023-12-14T14:10:23;7.80;94.60
27368;DHT22;14839;48.106;11.618;2023-12-14T14:12:48;7.70;94.60
27368;DHT22;14839;48.106;11.618;2023-12-14T14:15:22;7.70;94.60
27368;DHT22;14839;48.106;11.618;2023-12-14T14:17:48;7.70;94.60
27368;DHT22;14839;48.106;11.618;2023-12-14T14:20:17;7.70;94.60
27368;DHT22;14839;48.106;11.618;2023-12-14T14:22:42;7.50;94.60
27368;DHT22;14839;48.106;11.618;2023-12-14T14:25:08;7.40;94.60
27368;DHT22;14839;48.106;11.618;2023-12-14T14:27:34;7.30;94.60
27368;DHT22;14839;48.106;11.618;2023-12-14T14:30:00;7.30;94.60
27368;DHT22;14839;48.106;11.618;2023-12-14T14:32:26;7.20;94.60
27368;DHT22;14839;48.106;11.618;2023-12-14T14:34:52;7.20;94.60
27368;DHT22;14839;48.106;11.618;2023-12-14T14:37:20;7.20;94.60
27368;DHT22;14839;48.106;11.618;2023-12-14T14:39:45;7.10;94.60
27368;DHT22;14839;48.106;11.618;2023-12-14T14:42:11;7.10;94.60
27368;DHT22;14839;48.106;11.618;2023-12-14T14:44:37;7.10;94.60
27368;DHT22;14839;48.106;11.618;2023-12-14T14:47:03;7.10;94.60
27368;DHT22;14839;48.106;11.618;2023-12-14T14:49:29;7.00;94.60
27368;DHT22;14839;48.106;11.618;2023-12-14T14:51:54;7.00;94.60
27368;DHT22;14839;48.106;11.618;2023-12-14T14:54:20;6.90;94.60
27368;DHT22;14839;48.106;11.618;2023-12-14T14:56:46;6.80;94.60
27368;DHT22;14839;48.106;11.618;2023-12-14T14:59:11;6.80;94.60
27368;DHT22;14839;48.106;11.618;2023-12-14T15:01:41;6.80;94.60
27368;DHT22;14839;48.106;11.618;2023-12-14T15:04:06;6.80;94.60
27368;DHT22;14839;48.106;11.618;2023-12-14T15:06:32;6.80;94.60
27368;DHT22;14839;48.106;11.618;2023-12-14T15:08:59;6.80;94.60
27368;DHT22;14839;48.106;11.618;2023-12-14T15:11:24;6.70;94.60
27368;DHT22;14839;48.106;11.618;2023-12-14T15:13:50;6.70;94.60
27368;DHT22;14839;48.106;11.618;2023-12-14T15:16:16;6.70;94.60
27368;DHT22;14839;48.106;11.618;2023-12-14T15:18:43;6.60;94.60
27368;DHT22;14839;48.106;11.618;2023-12-14T15:21:09;6.60;94.60
27368;DHT22;14839;48.106;11.618;2023-12-14T15:23:35;6.60;94.60
27368;DHT22;14839;48.106;11.618;2023-12-14T15:26:02;6.60;94.60
27368;DHT22;14839;48.106;11.618;2023-12-14T15:28:28;6.60;94.60
27368;DHT22;14839;48.106;11.618;2023-12-14T15:30:53;6.60;94.60
27368;DHT22;14839;48.106;11.618;2023-12-14T15:33:19;6.60;94.60
27368;DHT22;14839;48.106;11.618;2023-12-14T15:35:46;6.50;94.60
27368;DHT22;14839;48.106;11.618;2023-12-14T15:38:12;6.50;94.60
27368;DHT22;14839;48.106;11.618;2023-12-14T15:40:37;6.50;94.60
27368;DHT22;14839;48.106;11.618;2023-12-14T15:43:04;6.50;94.60
27368;DHT22;14839;48.106;11.618;2023-12-14T15:45:30;6.40;94.60
27368;DHT22;14839;48.106;11.618;2023-12-14T15:48:02;6.40;94.60
27368;DHT22;14839;48.106;11.618;2023-12-14T15:50:28;6.40;94.60
27368;DHT22;14839;48.106;11.618;2023-12-14T15:52:54;6.40;94.60
27368;DHT22;14839;48.106;11.618;2023-12-14T15:55:20;6.30;94.60
27368;DHT22;14839;48.106;11.618;2023-12-14T15:57:48;6.30;94.60
27368;DHT22;14839;48.106;11.618;2023-12-14T16:00:14;6.30;94.60
27368;DHT22;14839;48.106;11.618;2023-12-14T16:02:40;6.30;94.60
27368;DHT22;14839;48.106;11.618;2023-12-14T16:05:06;6.30;94.60
27368;DHT22;14839;48.106;11.618;2023-12-14T16:07:33;6.30;94.60
27368;DHT22;14839;48.106;11.618;2023-12-14T16:09:59;6.30;94.60
27368;DHT22;14839;48.106;11.618;2023-12-14T16:12:25;6.30;94.60
27368;DHT22;14839;48.106;11.618;2023-12-14T16:14:50;6.30;94.60
27368;DHT22;14839;48.106;11.618;2023-12-14T16:17:18;6.30;94.60
27368;DHT22;14839;48.106;11.618;2023-12-14T16:19:44;6.30;94.60
27368;DHT22;14839;48.106;11.618;2023-12-14T16:22:09;6.30;94.60
27368;DHT22;14839;48.106;11.618;2023-12-14T16:24:35;6.20;94.60
27368;DHT22;14839;48.106;11.618;2023-12-14T16:27:01;6.20;94.60
27368;DHT22;14839;48.106;11.618;2023-12-14T16:29:27;6.20;94.60
27368;DHT22;14839;48.106;11.618;2023-12-14T16:31:53;6.20;94.60
27368;DHT22;14839;48.106;11.618;2023-12-14T16:34:18;6.20;94.60
27368;DHT22;14839;48.106;11.618;2023-12-14T16:36:47;6.10;94.60
27368;DHT22;14839;48.106;11.618;2023-12-14T16:39:13;6.10;94.60
27368;DHT22;14839;48.106;11.618;2023-12-14T16:41:39;6.10;94.60
27368;DHT22;14839;48.106;11.618;2023-12-14T16:44:05;6.10;94.60
27368;DHT22;14839;48.106;11.618;2023-12-14T16:46:31;6.10;94.60
27368;DHT22;14839;48.106;11.618;2023-12-14T16:48:57;6.10;94.60
27368;DHT22;14839;48.106;11.618;2023-12-14T16:51:23;6.10;94.60
27368;DHT22;14839;48.106;11.618;2023-12-14T16:53:50;6.00;94.60
27368;DHT22;14839;48.106;11.618;2023-12-14T16:56:16;6.00;94.60
27368;DHT22;14839;48.106;11.618;2023-12-14T16:58:43;6.00;94.60
27368;DHT22;14839;48.106;11.618;2023-12-14T17:01:10;6.00;94.60
27368;DHT22;14839;48.106;11.618;2023-12-14T17:03:35;6.00;94.60
27368;DHT22;14839;48.106;11.618;2023-12-14T17:06:01;6.00;94.60
27368;DHT22;14839;48.106;11.618;2023-12-14T17:08:26;5.90;94.60
27368;DHT22;14839;48.106;11.618;2023-12-14T17:10:53;6.00;94.60
27368;DHT22;14839;48.106;11.618;2023-12-14T17:13:20;6.00;94.60
27368;DHT22;14839;48.106;11.618;2023-12-14T17:15:45;6.00;94.60
27368;DHT22;14839;48.106;11.618;2023-12-14T17:18:11;6.00;94.60
27368;DHT22;14839;48.106;11.618;2023-12-14T17:20:37;6.00;94.60
27368;DHT22;14839;48.106;11.618;2023-12-14T17:23:06;6.00;94.60
27368;DHT22;14839;48.106;11.618;2023-12-14T17:25:31;6.00;94.60
27368;DHT22;14839;48.106;11.618;2023-12-14T17:27:57;6.10;94.60
27368;DHT22;14839;48.106;11.618;2023-12-14T17:30:23;6.10;94.60
27368;DHT22;14839;48.106;11.618;2023-12-14T17:32:49;6.10;94.60
27368;DHT22;14839;48.106;11.618;2023-12-14T17:35:15;6.10;94.60
27368;DHT22;14839;48.106;11.618;2023-12-14T17:37:40;6.10;94.60
27368;DHT22;14839;48.106;11.618;2023-12-14T17:40:06;6.10;94.60
27368;DHT22;14839;48.106;11.618;2023-12-14T17:42:32;6.10;94.60
27368;DHT22;14839;48.106;11.618;2023-12-14T17:44:57;6.10;94.60
27368;DHT22;14839;48.106;11.618;2023-12-14T17:47:23;6.10;94.60
27368;DHT22;14839;48.106;11.618;2023-12-14T17:49:48;6.10;94.60
27368;DHT22;14839;48.106;11.618;2023-12-14T17:52:14;6.00;94.60
27368;DHT22;14839;48.106;11.618;2023-12-14T17:54:40;6.10;94.60
27368;DHT22;14839;48.106;11.618;2023-12-14T17:57:05;6.10;94.60
27368;DHT22;14839;48.106;11.618;2023-12-14T17:59:31;6.00;94.60
27368;DHT22;14839;48.106;11.618;2023-12-14T18:01:57;6.00;94.60
27368;DHT22;14839;48.106;11.618;2023-12-14T18:04:23;6.00;94.60
27368;DHT22;14839;48.106;11.618;2023-12-14T18:06:49;6.00;94.60
27368;DHT22;14839;48.106;11.618;2023-12-14T18:09:15;6.00;94.60
27368;DHT22;14839;48.106;11.618;2023-12-14T18:11:41;6.00;94.60
27368;DHT22;14839;48.106;11.618;2023-12-14T18:14:07;5.90;94.60
27368;DHT22;14839;48.106;11.618;2023-12-14T18:16:33;5.90;94.60
27368;DHT22;14839;48.106;11.618;2023-12-14T18:19:00;6.00;94.60
27368;DHT22;14839;48.106;11.618;2023-12-14T18:21:26;5.90;94.60
27368;DHT22;14839;48.106;11.618;2023-12-14T18:23:53;6.00;94.60
27368;DHT22;14839;48.106;11.618;2023-12-14T18:26:18;6.00;94.60
27368;DHT22;14839;48.106;11.618;2023-12-14T18:28:44;6.00;94.60
27368;DHT22;14839;48.106;11.618;2023-12-14T18:31:09;6.00;94.60
27368;DHT22;14839;48.106;11.618;2023-12-14T18:33:35;6.00;94.60
27368;DHT22;14839;48.106;11.618;2023-12-14T18:36:04;6.00;94.60
27368;DHT22;14839;48.106;11.618;2023-12-14T18:38:29;6.00;94.60
27368;DHT22;14839;48.106;11.618;2023-12-14T18:41:01;6.00;94.60
27368;DHT22;14839;48.106;11.618;2023-12-14T18:43:27;6.00;94.60
27368;DHT22;14839;48.106;11.618;2023-12-14T18:45:53;6.00;94.60
27368;DHT22;14839;48.106;11.618;2023-12-14T18:48:19;5.90;94.60
27368;DHT22;14839;48.106;11.618;2023-12-14T18:50:44;5.90;94.60
27368;DHT22;14839;48.106;11.618;2023-12-14T18:53:10;5.80;94.60
27368;DHT22;14839;48.106;11.618;2023-12-14T18:55:36;5.80;94.60
27368;DHT22;14839;48.106;11.618;2023-12-14T18:58:05;5.70;94.60
27368;DHT22;14839;48.106;11.618;2023-12-14T19:00:31;5.60;94.60
27368;DHT22;14839;48.106;11.618;2023-12-14T19:02:57;5.70;94.60
27368;DHT22;14839;48.106;11.618;2023-12-14T19:05:22;5.60;94.60
27368;DHT22;14839;48.106;11.618;2023-12-14T19:07:52;5.70;94.60
27368;DHT22;14839;48.106;11.618;2023-12-14T19:10:18;5.70;94.60
27368;DHT22;14839;48.106;11.618;2023-12-14T19:12:48;5.60;94.60
27368;DHT22;14839;48.106;11.618;2023-12-14T19:15:14;5.60;94.60
27368;DHT22;14839;48.106;11.618;2023-12-14T19:17:39;5.60;94.60
27368;DHT22;14839;48.106;11.618;2023-12-14T19:20:08;5.60;94.60
27368;DHT22;14839;48.106;11.618;2023-12-14T19:22:34;5.60;94.60
27368;DHT22;14839;48.106;11.618;2023-12-14T19:25:00;5.60;94.60
27368;DHT22;14839;48.106;11.618;2023-12-14T19:27:26;5.60;94.60
27368;DHT22;14839;48.106;11.618;2023-12-14T19:29:51;5.50;94.60
27368;DHT22;14839;48.106;11.618;2023-12-14T19:32:17;5.60;94.60
27368;DHT22;14839;48.106;11.618;2023-12-14T19:34:43;5.50;94.60
27368;DHT22;14839;48.106;11.618;2023-12-14T19:37:09;5.50;94.60
27368;DHT22;14839;48.106;11.618;2023-12-14T19:39:35;5.50;94.60
27368;DHT22;14839;48.106;11.618;2023-12-14T19:42:00;5.60;94.60
27368;DHT22;14839;48.106;11.618;2023-12-14T19:44:26;5.60;94.60
27368;DHT22;14839;48.106;11.618;2023-12-14T19:46:52;5.60;94.60
27368;DHT22;14839;48.106;11.618;2023-12-14T19:49:18;5.60;94.60
27368;DHT22;14839;48.106;11.618;2023-12-14T19:51:43;5.60;94.60
27368;DHT22;14839;48.106;11.618;2023-12-14T19:54:09;5.60;94.60
27368;DHT22;14839;48.106;11.618;2023-12-14T19:56:34;5.60;94.60
27368;DHT22;14839;48.106;11.618;2023-12-14T19:59:00;5.60;94.60
27368;DHT22;14839;48.106;11.618;2023-12-14T20:01:32;5.60;94.60
27368;DHT22;14839;48.106;11.618;2023-12-14T20:03:59;5.70;94.60
27368;DHT22;14839;48.106;11.618;2023-12-14T20:06:25;5.70;94.60
27368;DHT22;14839;48.106;11.618;2023-12-14T20:08:51;5.70;94.60
27368;DHT22;14839;48.106;11.618;2023-12-14T20:11:17;5.70;94.60
27368;DHT22;14839;48.106;11.618;2023-12-14T20:13:44;5.80;94.60
27368;DHT22;14839;48.106;11.618;2023-12-14T20:16:10;5.80;94.60
27368;DHT22;14839;48.106;11.618;2023-12-14T20:18:36;5.80;94.60
27368;DHT22;14839;48.106;11.618;2023-12-14T20:21:03;5.70;94.60
27368;DHT22;14839;48.106;11.618;2023-12-14T20:23:29;5.70;94.60
27368;DHT22;14839;48.106;11.618;2023-12-14T20:25:54;5.70;94.60
27368;DHT22;14839;48.106;11.618;2023-12-14T20:28:20;5.80;94.60
27368;DHT22;14839;48.106;11.618;2023-12-14T20:30:47;5.80;94.60
27368;DHT22;14839;48.106;11.618;2023-12-14T20:33:13;5.80;94.60
27368;DHT22;14839;48.106;11.618;2023-12-14T20:35:39;5.80;94.60
27368;DHT22;14839;48.106;11.618;2023-12-14T20:38:04;5.80;94.60
27368;DHT22;14839;48.106;11.618;2023-12-14T20:40:33;5.80;94.60
27368;DHT22;14839;48.106;11.618;2023-12-14T20:42:59;5.80;94.60